createdAt,value
2019-01-26T00:01:24.460Z,100084.47
2019-01-26T00:03:53.506Z,100082.80
2019-01-26T00:06:21.499Z,100084.00
2019-01-26T00:08:49.553Z,100081.75
2019-01-26T00:11:17.640Z,100082.80
2019-01-26T00:13:45.693Z,100077.97
2019-01-26T00:16:13.733Z,100072.79
2019-01-26T00:18:41.699Z,100068.56
2019-01-26T00:21:09.720Z,100071.50
2019-01-26T00:23:37.702Z,100075.38
2019-01-26T00:26:05.718Z,100072.31
2019-01-26T00:28:34.064Z,100072.56
2019-01-26T00:31:02.471Z,100072.09
2019-01-26T00:33:30.502Z,100066.91
2019-01-26T00:35:58.594Z,100064.67
2019-01-26T00:38:26.609Z,100068.20
2019-01-26T00:40:54.533Z,100063.98
2019-01-26T00:43:22.631Z,100064.80
2019-01-26T00:45:50.675Z,100074.68
2019-01-26T00:48:18.680Z,100065.49
2019-01-26T00:50:46.851Z,100065.14
2019-01-26T00:53:14.938Z,100065.97
2019-01-26T00:55:43.064Z,100058.20
2019-01-26T00:58:11.162Z,100064.20
2019-01-26T01:00:39.551Z,100061.61
2019-01-26T01:03:07.599Z,100062.08
2019-01-26T01:05:37.432Z,100054.31
2019-01-26T01:08:05.713Z,100050.56
2019-01-26T01:10:33.801Z,100050.44
2019-01-26T01:13:01.804Z,100047.97
2019-01-26T01:15:29.881Z,100049.27
2019-01-26T01:17:57.891Z,100048.92
2019-01-26T01:20:25.907Z,100054.45
2019-01-26T01:22:53.908Z,100053.15
2019-01-26T01:25:21.921Z,100046.42
2019-01-26T01:27:49.879Z,100039.73
2019-01-26T01:30:19.536Z,100040.91
2019-01-26T01:32:47.581Z,100043.63
2019-01-26T01:35:15.894Z,100038.23
2019-01-26T01:37:43.921Z,100035.30
2019-01-26T01:40:12.996Z,100033.66
2019-01-26T01:42:41.255Z,100030.00
2019-01-26T01:45:13.446Z,100037.54
2019-01-26T01:47:41.479Z,100042.72
2019-01-26T01:50:09.995Z,100041.52
2019-01-26T01:52:38.048Z,100050.01
2019-01-26T01:55:07.839Z,100042.59
2019-01-26T01:57:35.856Z,100043.53
2019-01-26T02:00:09.534Z,100045.66
2019-01-26T02:02:37.546Z,100040.95
2019-01-26T02:05:06.286Z,100038.48
2019-01-26T02:07:36.093Z,100038.48
2019-01-26T02:10:06.950Z,100050.14
2019-01-26T02:12:35.101Z,100047.20
2019-01-26T02:15:04.523Z,100041.20
2019-01-26T02:17:32.542Z,100037.67
2019-01-26T02:20:00.681Z,100045.30
2019-01-26T02:22:28.695Z,100042.38
2019-01-26T02:24:57.464Z,100050.01
2019-01-26T02:27:25.510Z,100053.89
2019-01-26T02:29:53.914Z,100056.83
2019-01-26T02:32:21.929Z,100054.36
2019-01-26T02:34:50.242Z,100048.97
2019-01-26T02:37:18.253Z,100041.20
2019-01-26T02:39:46.220Z,100045.43
2019-01-26T02:42:14.326Z,100035.08
2019-01-26T02:44:42.360Z,100033.09
2019-01-26T02:47:10.992Z,100027.67
2019-01-26T02:49:39.019Z,100022.63
2019-01-26T02:52:09.898Z,100027.45
2019-01-26T02:54:37.895Z,100021.80
2019-01-26T02:57:05.996Z,100018.73
2019-01-26T02:59:34.002Z,100018.14
2019-01-26T03:02:02.450Z,100011.10
2019-01-26T03:04:30.456Z,100010.50
2019-01-26T03:06:58.526Z,100011.20
2019-01-26T03:09:26.571Z,100010.25
2019-01-26T03:11:54.631Z,100010.03
2019-01-26T03:14:22.618Z,100013.66
2019-01-26T03:16:51.713Z,100009.30
2019-01-26T03:19:19.735Z,100005.41
2019-01-26T03:21:47.727Z,100002.83
2019-01-26T03:24:15.629Z,99989.41
2019-01-26T03:26:44.042Z,100001.18
2019-01-26T03:29:12.007Z,99991.52
2019-01-26T03:31:40.286Z,99990.95
2019-01-26T03:34:08.594Z,100000.23
2019-01-26T03:36:36.629Z,99989.14
2019-01-26T03:39:07.974Z,99981.75
2019-01-26T03:41:35.950Z,99976.79
2019-01-26T03:44:03.974Z,99971.83
2019-01-26T03:46:32.044Z,99969.59
2019-01-26T03:49:00.075Z,99969.14
2019-01-26T03:51:28.063Z,99968.67
2019-01-26T03:53:56.099Z,99967.95
2019-01-26T03:56:24.102Z,99964.41
2019-01-26T03:58:52.400Z,99960.18
2019-01-26T04:01:20.659Z,99961.72
2019-01-26T04:03:48.681Z,99963.11
2019-01-26T04:06:16.685Z,99966.08
2019-01-26T04:08:44.918Z,99969.02
2019-01-26T04:11:12.938Z,99960.98
2019-01-26T04:13:40.954Z,99951.23
2019-01-26T04:16:09.043Z,99948.99
2019-01-26T04:18:39.328Z,99947.09
2019-01-26T04:21:07.310Z,99948.04
2019-01-26T04:23:35.328Z,99948.17
2019-01-26T04:26:03.298Z,99944.42
2019-01-26T04:28:31.469Z,99947.01
2019-01-26T04:31:00.482Z,99939.37
2019-01-26T04:33:28.689Z,99934.64
2019-01-26T04:35:56.664Z,99933.47
2019-01-26T04:38:24.717Z,99927.25
2019-01-26T04:40:52.722Z,99934.06
2019-01-26T04:43:21.044Z,99927.46
2019-01-26T04:45:49.272Z,99923.45
2019-01-26T04:48:17.278Z,99920.38
2019-01-26T04:50:45.427Z,99924.61
2019-01-26T04:53:13.870Z,99925.91
2019-01-26T04:55:42.253Z,99922.39
2019-01-26T04:58:10.270Z,99915.92
2019-01-26T05:00:38.764Z,99921.58
2019-01-26T05:03:06.781Z,99923.79
2019-01-26T05:05:34.813Z,99923.79
2019-01-26T05:08:02.820Z,99923.92
2019-01-26T05:10:31.292Z,99926.64
2019-01-26T05:12:59.278Z,99931.82
2019-01-26T05:15:27.472Z,99928.55
2019-01-26T05:17:55.482Z,99926.88
2019-01-26T05:20:25.080Z,99916.52
2019-01-26T05:22:53.059Z,99918.19
2019-01-26T05:25:21.091Z,99918.88
2019-01-26T05:27:49.197Z,99912.06
2019-01-26T05:30:23.696Z,99914.99
2019-01-26T05:32:52.057Z,99918.53
2019-01-26T05:35:20.445Z,99913.09
2019-01-26T05:37:48.431Z,99913.44
2019-01-26T05:40:16.595Z,99908.73
2019-01-26T05:42:44.715Z,99916.84
2019-01-26T05:45:16.273Z,99917.22
2019-01-26T05:47:48.693Z,99911.30
2019-01-26T05:50:21.614Z,99908.23
2019-01-26T05:52:49.599Z,99897.06
2019-01-26T05:55:17.613Z,99898.70
2019-01-26T05:57:45.813Z,99892.57
2019-01-26T06:00:25.154Z,99894.11
2019-01-26T06:02:53.289Z,99893.97
2019-01-26T06:05:21.388Z,99897.38
2019-01-26T06:07:50.131Z,99897.25
2019-01-26T06:10:18.226Z,99896.67
2019-01-26T06:12:46.248Z,99900.77
2019-01-26T06:15:14.466Z,99901.59
2019-01-26T06:17:42.493Z,99904.86
2019-01-26T06:20:11.157Z,99904.76
2019-01-26T06:22:39.175Z,99902.86
2019-01-26T06:25:09.947Z,99896.72
2019-01-26T06:27:37.923Z,99902.24
2019-01-26T06:30:11.189Z,99904.13
2019-01-26T06:32:39.206Z,99903.52
2019-01-26T06:35:09.044Z,99905.87
2019-01-26T06:37:37.065Z,99910.91
2019-01-26T06:40:07.541Z,99909.01
2019-01-26T06:42:35.519Z,99912.42
2019-01-26T06:45:04.792Z,99913.81
2019-01-26T06:47:32.798Z,99911.78
2019-01-26T06:50:00.875Z,99912.13
2019-01-26T06:52:29.163Z,99911.41
2019-01-26T06:54:57.866Z,99909.50
2019-01-26T06:57:26.743Z,99911.03
2019-01-26T06:59:54.719Z,99909.13
2019-01-26T07:02:22.786Z,99907.35
2019-01-26T07:05:13.040Z,99912.73
2019-01-26T07:07:41.111Z,99908.75
2019-01-26T07:10:09.384Z,99914.75
2019-01-26T07:12:37.392Z,99916.86
2019-01-26T07:15:06.637Z,99917.89
2019-01-26T07:17:34.713Z,99916.94
2019-01-26T07:20:04.122Z,99912.09
2019-01-26T07:22:32.138Z,99917.28
2019-01-26T07:25:00.213Z,99907.76
2019-01-26T07:27:28.200Z,99907.28
2019-01-26T07:29:56.300Z,99906.66
2019-01-26T07:32:24.283Z,99917.37
2019-01-26T07:34:52.603Z,99915.47
2019-01-26T07:37:20.749Z,99904.99
2019-01-26T07:39:48.858Z,99896.39
2019-01-26T07:42:16.863Z,99886.23
2019-01-26T07:44:44.851Z,99890.33
2019-01-26T07:47:12.855Z,99886.19
2019-01-26T07:49:40.873Z,99882.98
2019-01-26T07:52:09.035Z,99882.37
2019-01-26T07:54:37.238Z,99879.19
2019-01-26T07:57:05.271Z,99894.33
2019-01-26T07:59:33.376Z,99890.20
2019-01-26T08:02:01.549Z,99888.28
2019-01-26T08:04:30.721Z,99888.63
2019-01-26T08:06:59.738Z,99886.75
2019-01-26T08:09:27.740Z,99881.42
2019-01-26T08:11:55.828Z,99886.33
2019-01-26T08:14:23.896Z,99885.38
2019-01-26T08:16:51.999Z,99889.35
2019-01-26T08:19:20.065Z,99881.91
2019-01-26T08:21:48.581Z,99884.59
2019-01-26T08:24:16.637Z,99881.52
2019-01-26T08:26:45.044Z,99882.34
2019-01-26T08:29:13.005Z,99886.30
2019-01-26T08:31:41.069Z,99893.63
2019-01-26T08:34:09.074Z,99894.78
2019-01-26T08:36:37.106Z,99892.19
2019-01-26T08:39:07.607Z,99889.12
2019-01-26T08:41:36.313Z,99895.37
2019-01-26T08:44:04.597Z,99893.63
2019-01-26T08:46:34.074Z,99889.26
2019-01-26T08:49:02.104Z,99887.59
2019-01-26T08:51:30.124Z,99890.66
2019-01-26T08:53:58.097Z,99883.50
2019-01-26T08:56:27.178Z,99877.63
2019-01-26T08:58:55.215Z,99869.85
2019-01-26T09:01:23.280Z,99878.93
2019-01-26T09:04:09.048Z,99876.20
2019-01-26T09:06:43.548Z,99877.16
2019-01-26T09:09:13.224Z,99875.38
2019-01-26T09:11:41.589Z,99879.80
2019-01-26T09:14:09.590Z,99888.16
2019-01-26T09:16:37.976Z,99884.80
2019-01-26T09:19:06.575Z,99875.13
2019-01-26T09:21:34.661Z,99869.95
2019-01-26T09:24:04.724Z,99871.67
2019-01-26T09:26:33.375Z,99867.78
2019-01-26T09:29:01.885Z,99867.30
2019-01-26T09:31:30.197Z,99864.56
2019-01-26T09:33:58.246Z,99859.71
2019-01-26T09:36:26.340Z,99861.09
2019-01-26T09:38:54.385Z,99865.32
2019-01-26T09:41:22.445Z,99863.06
2019-01-26T09:43:50.547Z,99864.36
2019-01-26T09:46:18.592Z,99875.17
2019-01-26T09:48:46.657Z,99871.84
2019-01-26T09:51:14.672Z,99866.31
2019-01-26T09:53:43.055Z,99868.42
2019-01-26T09:56:11.056Z,99859.48
2019-01-26T09:58:39.054Z,99864.20
2019-01-26T10:01:07.046Z,99860.44
2019-01-26T10:03:35.368Z,99862.61
2019-01-26T10:06:03.913Z,99857.16
2019-01-26T10:08:31.928Z,99851.83
2019-01-26T10:11:00.815Z,99854.98
2019-01-26T10:13:29.150Z,99850.47
2019-01-26T10:15:57.134Z,99847.48
2019-01-26T10:18:25.191Z,99845.41
2019-01-26T10:20:53.456Z,99835.10
2019-01-26T10:23:21.609Z,99839.19
2019-01-26T10:25:49.649Z,99837.48
2019-01-26T10:28:17.651Z,99834.82
2019-01-26T10:30:51.525Z,99827.63
2019-01-26T10:33:19.558Z,99822.06
2019-01-26T10:36:13.300Z,99819.09
2019-01-26T10:38:46.509Z,99827.00
2019-01-26T10:41:39.986Z,99824.20
2019-01-26T10:44:09.318Z,99813.77
2019-01-26T10:46:37.360Z,99817.14
2019-01-26T10:49:05.507Z,99810.55
2019-01-26T10:51:33.511Z,99810.88
2019-01-26T10:54:01.567Z,99810.28
2019-01-26T10:56:33.473Z,99799.40
2019-01-26T10:59:02.389Z,99795.68
2019-01-26T11:01:31.374Z,99786.30
2019-01-26T11:03:59.450Z,99791.53
2019-01-26T11:06:27.369Z,99787.03
2019-01-26T11:08:55.411Z,99785.09
2019-01-26T11:11:23.452Z,99780.71
2019-01-26T11:13:51.506Z,99774.20
2019-01-26T11:16:19.485Z,99769.88
2019-01-26T11:18:47.631Z,99767.16
2019-01-26T11:21:15.631Z,99761.52
2019-01-26T11:23:43.645Z,99762.67
2019-01-26T11:26:11.618Z,99761.37
2019-01-26T11:28:39.723Z,99758.00
2019-01-26T11:31:08.812Z,99750.86
2019-01-26T11:33:36.856Z,99746.20
2019-01-26T11:36:04.913Z,99734.34
2019-01-26T11:38:32.980Z,99734.08
2019-01-26T11:41:04.089Z,99718.84
2019-01-26T11:43:32.138Z,99714.95
2019-01-26T11:46:28.760Z,99711.26
2019-01-26T11:48:57.805Z,99709.97
2019-01-26T11:51:33.843Z,99710.66
2019-01-26T11:54:02.329Z,99718.16
2019-01-26T11:56:51.483Z,99707.59
2019-01-26T11:59:19.847Z,99704.98
2019-01-26T12:02:04.903Z,99693.91
2019-01-26T12:04:38.193Z,99697.99
2019-01-26T12:07:25.819Z,99692.17
2019-01-26T12:09:54.375Z,99698.52
2019-01-26T12:12:22.408Z,99693.80
2019-01-26T12:14:50.570Z,99688.11
2019-01-26T12:17:18.579Z,99681.27
2019-01-26T12:19:46.997Z,99679.17
2019-01-26T12:22:15.181Z,99674.49
2019-01-26T12:24:43.276Z,99670.27
2019-01-26T12:27:11.272Z,99663.44
2019-01-26T12:29:40.929Z,99666.52
2019-01-26T12:32:09.202Z,99661.47
2019-01-26T12:34:38.437Z,99648.75
2019-01-26T12:37:06.464Z,99649.72
2019-01-26T12:39:34.533Z,99658.98
2019-01-26T12:42:02.688Z,99654.92
2019-01-26T12:44:30.760Z,99650.05
2019-01-26T12:46:58.730Z,99635.93
2019-01-26T12:49:29.692Z,99640.48
2019-01-26T12:51:56.809Z,99631.87
2019-01-26T12:54:24.857Z,99628.45
2019-01-26T12:56:52.856Z,99631.87
2019-01-26T12:59:21.028Z,99623.89
2019-01-26T13:01:48.968Z,99619.70
2019-01-26T13:04:17.111Z,99612.55
2019-01-26T13:06:45.115Z,99613.20
2019-01-26T13:09:13.367Z,99611.28
2019-01-26T13:11:43.224Z,99605.91
2019-01-26T13:14:11.415Z,99609.81
2019-01-26T13:16:39.421Z,99614.89
2019-01-26T13:19:07.596Z,99610.34
2019-01-26T13:21:35.630Z,99606.30
2019-01-26T13:24:04.930Z,99612.48
2019-01-26T13:26:32.933Z,99605.52
2019-01-26T13:29:02.463Z,99595.59
2019-01-26T13:31:30.959Z,99594.97
2019-01-26T13:34:01.870Z,99591.68
2019-01-26T13:36:29.943Z,99585.50
2019-01-26T13:39:01.601Z,99592.36
2019-01-26T13:41:30.699Z,99587.31
2019-01-26T13:43:58.913Z,99581.94
2019-01-26T13:46:26.985Z,99584.73
2019-01-26T13:48:55.186Z,99587.83
2019-01-26T13:51:23.378Z,99582.31
2019-01-26T13:53:51.536Z,99574.97
2019-01-26T13:56:19.771Z,99568.62
2019-01-26T13:58:47.963Z,99569.24
2019-01-26T14:01:16.196Z,99575.08
2019-01-26T14:03:44.278Z,99577.84
2019-01-26T14:06:12.494Z,99567.42
2019-01-26T14:08:40.519Z,99564.66
2019-01-26T14:11:08.653Z,99562.22
2019-01-26T14:13:36.678Z,99559.94
2019-01-26T14:16:04.807Z,99559.13
2019-01-26T14:18:32.784Z,99554.89
2019-01-26T14:21:03.820Z,99555.52
2019-01-26T14:23:31.828Z,99554.70
2019-01-26T14:26:00.097Z,99551.94
2019-01-26T14:28:28.165Z,99546.08
2019-01-26T14:31:00.094Z,99547.22
2019-01-26T14:33:28.206Z,99536.64
2019-01-26T14:35:56.400Z,99537.78
2019-01-26T14:38:24.501Z,99534.20
2019-01-26T14:40:52.658Z,99536.80
2019-01-26T14:43:20.679Z,99537.16
2019-01-26T14:45:48.850Z,99535.03
2019-01-26T14:48:17.266Z,99536.98
2019-01-26T14:50:45.530Z,99533.70
2019-01-26T14:53:13.539Z,99527.84
2019-01-26T14:55:41.684Z,99531.11
2019-01-26T14:58:09.734Z,99514.16
2019-01-26T15:00:37.937Z,99515.27
2019-01-26T15:03:05.928Z,99519.66
2019-01-26T15:05:34.264Z,99520.17
2019-01-26T15:08:02.812Z,99524.08
2019-01-26T15:10:30.982Z,99513.97
2019-01-26T15:12:59.404Z,99500.78
2019-01-26T15:15:27.501Z,99499.67
2019-01-26T15:17:55.879Z,99499.48
2019-01-26T15:20:28.476Z,99499.02
2019-01-26T15:22:56.458Z,99496.74
2019-01-26T15:25:24.671Z,99497.36
2019-01-26T15:27:52.643Z,99490.20
2019-01-26T15:30:25.929Z,99490.20
2019-01-26T15:32:54.304Z,99484.35
2019-01-26T15:35:22.491Z,99484.19
2019-01-26T15:37:50.581Z,99493.14
2019-01-26T15:40:18.838Z,99484.52
2019-01-26T15:42:46.958Z,99480.28
2019-01-26T15:45:24.505Z,99481.91
2019-01-26T15:47:52.671Z,99478.01
2019-01-26T15:50:21.485Z,99467.92
2019-01-26T15:52:49.743Z,99479.12
2019-01-26T15:55:20.331Z,99479.28
2019-01-26T15:57:48.494Z,99479.75
2019-01-26T16:00:22.635Z,99477.47
2019-01-26T16:02:50.615Z,99470.15
2019-01-26T16:05:18.903Z,99466.55
2019-01-26T16:07:46.924Z,99460.34
2019-01-26T16:10:18.019Z,99465.70
2019-01-26T16:12:46.655Z,99446.67
2019-01-26T16:15:21.074Z,99451.87
2019-01-26T16:17:49.175Z,99440.82
2019-01-26T16:20:20.392Z,99454.45
2019-01-26T16:22:48.793Z,99451.85
2019-01-26T16:25:17.266Z,99443.91
2019-01-26T16:27:45.512Z,99447.66
2019-01-26T16:30:17.321Z,99440.49
2019-01-26T16:32:46.038Z,99436.91
2019-01-26T16:35:14.466Z,99431.88
2019-01-26T16:37:43.064Z,99427.80
2019-01-26T16:40:15.546Z,99418.70
2019-01-26T16:42:43.626Z,99423.25
2019-01-26T16:45:22.014Z,99419.00
2019-01-26T16:47:50.290Z,99411.52
2019-01-26T16:50:27.456Z,99413.12
2019-01-26T16:52:51.615Z,99401.09
2019-01-26T16:55:20.013Z,99392.14
2019-01-26T16:57:48.165Z,99388.89
2019-01-26T17:00:37.913Z,99389.03
2019-01-26T17:03:05.952Z,99385.28
2019-01-26T17:05:34.541Z,99377.65
2019-01-26T17:08:03.209Z,99375.05
2019-01-26T17:10:34.248Z,99375.99
2019-01-26T17:13:01.562Z,99380.72
2019-01-26T17:15:30.830Z,99378.60
2019-01-26T17:17:58.882Z,99377.30
2019-01-26T17:20:34.571Z,99357.11
2019-01-26T17:22:58.696Z,99354.38
2019-01-26T17:25:26.806Z,99347.52
2019-01-26T17:27:54.823Z,99341.99
2019-01-26T17:30:27.480Z,99343.13
2019-01-26T17:32:55.401Z,99342.02
2019-01-26T17:35:23.559Z,99341.86
2019-01-26T17:37:51.687Z,99343.48
2019-01-26T17:40:21.920Z,99342.99
2019-01-26T17:42:49.959Z,99340.88
2019-01-26T17:45:18.875Z,99336.66
2019-01-26T17:47:47.076Z,99340.39
2019-01-26T17:50:17.766Z,99346.08
2019-01-26T17:52:46.194Z,99335.84
2019-01-26T17:55:14.451Z,99336.98
2019-01-26T17:57:42.533Z,99328.20
2019-01-26T18:00:45.886Z,99336.35
2019-01-26T18:03:14.419Z,99329.36
2019-01-26T18:05:42.480Z,99324.65
2019-01-26T18:08:10.525Z,99318.95
2019-01-26T18:10:38.538Z,99307.89
2019-01-26T18:13:06.612Z,99300.91
2019-01-26T18:15:34.825Z,99303.50
2019-01-26T18:18:03.166Z,99297.97
2019-01-26T18:20:31.205Z,99290.03
2019-01-26T18:23:00.650Z,99293.77
2019-01-26T18:25:31.861Z,99300.09
2019-01-26T18:28:00.014Z,99299.94
2019-01-26T18:30:28.145Z,99290.83
2019-01-26T18:32:56.185Z,99281.58
2019-01-26T18:35:24.259Z,99282.05
2019-01-26T18:37:52.459Z,99280.28
2019-01-26T18:40:23.609Z,99272.80
2019-01-26T18:42:51.729Z,99258.81
2019-01-26T18:45:22.183Z,99245.80
2019-01-26T18:47:50.589Z,99256.02
2019-01-26T18:50:21.933Z,99233.09
2019-01-26T18:52:50.051Z,99227.73
2019-01-26T18:55:18.044Z,99225.14
2019-01-26T18:57:46.093Z,99232.77
2019-01-26T19:00:21.104Z,99221.88
2019-01-26T19:03:20.376Z,99224.98
2019-01-26T19:05:54.724Z,99216.03
2019-01-26T19:08:22.842Z,99208.72
2019-01-26T19:10:50.819Z,99199.13
2019-01-26T19:13:18.914Z,99195.38
2019-01-26T19:15:47.077Z,99185.47
2019-01-26T19:18:15.118Z,99175.69
2019-01-26T19:20:44.482Z,99177.00
2019-01-26T19:23:12.526Z,99172.27
2019-01-26T19:25:40.722Z,99172.91
2019-01-26T19:28:08.755Z,99174.06
2019-01-26T19:30:36.867Z,99171.29
2019-01-26T19:33:06.374Z,99164.93
2019-01-26T19:35:36.566Z,99161.69
2019-01-26T19:38:04.827Z,99162.02
2019-01-26T19:40:32.837Z,99155.82
2019-01-26T19:43:00.878Z,99161.03
2019-01-26T19:45:28.919Z,99159.55
2019-01-26T19:47:56.930Z,99160.36
2019-01-26T19:50:25.285Z,99163.46
2019-01-26T19:52:53.287Z,99159.88
2019-01-26T19:55:22.820Z,99167.02
2019-01-26T19:57:50.794Z,99164.10
2019-01-26T20:00:18.896Z,99165.55
2019-01-26T20:02:48.073Z,99166.22
2019-01-26T20:05:18.591Z,99147.67
2019-01-26T20:07:48.240Z,99147.00
2019-01-26T20:10:17.698Z,99146.51
2019-01-26T20:12:45.893Z,99143.09
2019-01-26T20:15:18.007Z,99128.14
2019-01-26T20:17:46.385Z,99115.44
2019-01-26T20:20:25.238Z,99098.86
2019-01-26T20:22:53.316Z,99099.22
2019-01-26T20:25:21.369Z,99089.12
2019-01-26T20:27:49.374Z,99077.75
2019-01-26T20:30:22.448Z,99070.92
2019-01-26T20:32:50.491Z,99064.07
2019-01-26T20:35:18.553Z,99050.10
2019-01-26T20:37:46.553Z,99037.90
2019-01-26T20:40:15.748Z,99035.78
2019-01-26T20:42:43.834Z,99027.63
2019-01-26T20:45:16.711Z,99023.73
2019-01-26T20:47:45.202Z,99020.66
2019-01-26T20:50:14.062Z,99024.39
2019-01-26T20:52:42.197Z,99018.06
2019-01-26T20:55:11.358Z,99009.77
2019-01-26T20:57:39.426Z,99010.08
2019-01-26T21:00:27.318Z,99008.95
2019-01-26T21:02:56.337Z,99000.48
2019-01-26T21:05:25.770Z,98996.39
2019-01-26T21:07:54.156Z,98990.06
2019-01-26T21:10:25.304Z,98989.39
2019-01-26T21:12:53.274Z,98973.91
2019-01-26T21:15:21.557Z,98970.17
2019-01-26T21:17:49.549Z,98959.90
2019-01-26T21:20:18.965Z,98956.97
2019-01-26T21:22:47.119Z,98961.02
2019-01-26T21:25:15.599Z,98942.79
2019-01-26T21:27:43.622Z,98943.27
2019-01-26T21:30:19.067Z,98938.38
2019-01-26T21:32:47.063Z,98919.48
2019-01-26T21:35:15.137Z,98913.77
2019-01-26T21:37:43.157Z,98907.08
2019-01-26T21:40:15.862Z,98899.39
2019-01-26T21:42:43.920Z,98896.45
2019-01-26T21:45:13.233Z,98890.08
2019-01-26T21:47:41.352Z,98885.34
2019-01-26T21:50:14.239Z,98873.76
2019-01-26T21:52:42.261Z,98873.89
2019-01-26T21:55:10.589Z,98871.63
2019-01-26T21:57:38.579Z,98865.92
2019-01-26T22:00:12.436Z,98868.19
2019-01-26T22:02:40.465Z,98855.98
2019-01-26T22:05:09.426Z,98853.69
2019-01-26T22:07:37.427Z,98859.39
2019-01-26T22:10:08.696Z,98851.88
2019-01-26T22:12:36.702Z,98844.07
2019-01-26T22:15:06.947Z,98839.02
2019-01-26T22:17:36.036Z,98827.11
2019-01-26T22:20:07.521Z,98827.73
2019-01-26T22:22:35.530Z,98824.48
2019-01-26T22:25:05.851Z,98819.40
2019-01-26T22:27:33.824Z,98822.63
2019-01-26T22:30:01.882Z,98819.68
2019-01-26T22:32:29.906Z,98820.98
2019-01-26T22:34:57.964Z,98814.78
2019-01-26T22:37:25.965Z,98817.20
2019-01-26T22:39:54.020Z,98816.86
2019-01-26T22:42:22.031Z,98816.00
2019-01-26T22:44:50.053Z,98818.11
2019-01-26T22:47:18.238Z,98803.77
2019-01-26T22:49:46.254Z,98800.36
2019-01-26T22:52:14.323Z,98784.53
2019-01-26T22:54:43.425Z,98778.02
2019-01-26T22:57:11.460Z,98772.81
2019-01-26T22:59:39.447Z,98768.90
2019-01-26T23:02:07.774Z,98775.23
2019-01-26T23:05:40.470Z,98760.09
2019-01-26T23:08:21.064Z,98758.63
2019-01-26T23:11:20.104Z,98758.63
2019-01-26T23:14:16.958Z,98759.87
2019-01-26T23:17:55.051Z,98747.83
2019-01-26T23:21:04.678Z,98747.14
2019-01-26T23:24:36.011Z,98737.22
2019-01-26T23:28:09.889Z,98730.39
2019-01-26T23:31:17.867Z,98713.76
2019-01-26T23:33:48.483Z,98715.56
2019-01-26T23:36:16.804Z,98703.52
2019-01-26T23:38:44.801Z,98702.03
2019-01-26T23:41:13.231Z,98689.64
2019-01-26T23:43:41.421Z,98685.36
2019-01-26T23:46:09.432Z,98686.47
2019-01-26T23:48:38.728Z,98675.50
2019-01-26T23:51:07.622Z,98673.20
2019-01-26T23:53:35.793Z,98671.36
2019-01-26T23:56:04.382Z,98664.96
2019-01-26T23:58:32.377Z,98655.64
